Hlavní strana
METAR-TAF:

METAR-TAF

Letiště :

Šíráz, Írán

zeměpisná šířka: 29-32N, zeměpisná délka: 052-35E, výška: 1486 m

Aktuální stav počasí

Zpráva byla vytvořena před 38 minutami, v 13:30 UTC
Západní vítr 14 kt s nárazy do 32 kt, proměnlivý mezi jihozápadním a severoseverozápadním
Teplota 12°C
Vlhkost vzduchu 40%
Tlak 1017 hPa
Viditelnost 10 km a více
Skoro jasno ve výšce 4000 ft

METAR: OISS 181330Z 28014G32KT 230V330 9999 FEW040 12/M01 Q1016 A3002

Čas: 17:38 (14:08 UTC)

Předpověď počasí

Zpráva byla vytvořena před 8 hodinami a 23 minutami, v 05:45 UTC
Předpověď platná od 18 v 06 UTC do 19 v 12 UTC
Západní vítr 6 kt
Viditelnost: 8000 m
Skoro jasno ve výšce 3500 ft
Polojasno ve výšce 10000 ft
Dočasný
od 18 v 06 UTC do 18 v 14 UTC
Západní vítr 11 kt s nárazy do 25 kt

TAF: OISS 180545Z 1806/1912 27006KT 8000 FEW035 SCT100 TEMPO 1806/1814 27011G25KT

Stav a předpovědi počasí z více než 4 000 letišť (zprávy METAR a TAF).

Červené a žluté tečky na mapě představují dostupné meteorologické stanice.

Když kurzor umístíte na tečku, zobrazí se název stanice.

Pak kliknutím zobrazíte stav a předpověď počasí.

Chcete-li změnit mapu, kliknutím na zelené tlačítko se znaménkem +mapu přiblížíte, kliknutím na zelené tlačítko se znaménkem – mapu oddálíte a kliknutím na zelené šipky přejdete na sousední mapy.


METAR-TAF: